createdAt,value
2017-11-22T00:00:40.171Z,95.32
2017-11-22T00:01:40.158Z,95.60
2017-11-22T00:02:40.146Z,95.41
2017-11-22T00:03:40.152Z,95.41
2017-11-22T00:04:40.132Z,95.89
2017-11-22T00:05:40.135Z,95.60
2017-11-22T00:06:40.135Z,96.12
2017-11-22T00:07:40.131Z,95.89
2017-11-22T00:08:40.130Z,95.84
2017-11-22T00:09:40.121Z,95.70
2017-11-22T00:10:40.121Z,96.46
2017-11-22T00:11:40.114Z,95.32
2017-11-22T00:12:40.116Z,95.98
2017-11-22T00:13:40.118Z,94.74
2017-11-22T00:14:40.105Z,94.84
2017-11-22T00:15:40.098Z,95.51
2017-11-22T00:16:40.099Z,95.12
2017-11-22T00:17:40.098Z,95.22
2017-11-22T00:18:40.092Z,95.03
2017-11-22T00:19:40.089Z,95.32
2017-11-22T00:20:40.088Z,95.22
2017-11-22T00:21:40.082Z,94.37
2017-11-22T00:22:40.083Z,95.70
2017-11-22T00:23:40.081Z,95.51
2017-11-22T00:24:40.076Z,95.60
2017-11-22T00:25:40.066Z,94.84
2017-11-22T00:26:40.071Z,94.18
2017-11-22T00:27:40.063Z,94.93
2017-11-22T00:28:40.061Z,95.60
2017-11-22T00:29:40.059Z,94.93
2017-11-22T00:30:40.055Z,94.84
2017-11-22T00:31:40.054Z,94.65
2017-11-22T00:32:40.050Z,94.74
2017-11-22T00:33:40.047Z,95.41
2017-11-22T00:34:40.042Z,94.46
2017-11-22T00:35:40.044Z,93.60
2017-11-22T00:36:40.037Z,93.32
2017-11-22T00:37:40.054Z,92.65
2017-11-22T00:38:40.031Z,93.55
2017-11-22T00:39:40.031Z,94.18
2017-11-22T00:40:40.048Z,94.84
2017-11-22T00:41:40.021Z,93.98
2017-11-22T00:42:40.020Z,94.74
2017-11-22T00:43:40.019Z,94.46
2017-11-22T00:44:40.015Z,93.60
2017-11-22T00:45:40.010Z,95.12
2017-11-22T00:46:40.009Z,93.98
2017-11-22T00:47:40.007Z,94.84
2017-11-22T00:48:40.006Z,94.93
2017-11-22T00:49:39.998Z,95.51
2017-11-22T00:50:39.994Z,94.65
2017-11-22T00:51:39.993Z,95.03
2017-11-22T00:52:39.985Z,93.79
2017-11-22T00:53:39.986Z,94.18
2017-11-22T00:54:39.983Z,93.04
2017-11-22T00:55:39.978Z,94.08
2017-11-22T00:56:39.982Z,92.56
2017-11-22T00:57:39.972Z,93.55
2017-11-22T00:58:39.970Z,93.60
2017-11-22T00:59:39.965Z,92.65
2017-11-22T01:00:39.966Z,92.94
2017-11-22T01:01:39.960Z,93.51
2017-11-22T01:02:39.957Z,93.98
2017-11-22T01:03:39.956Z,94.56
2017-11-22T01:04:39.951Z,94.93
2017-11-22T01:05:39.948Z,95.12
2017-11-22T01:06:39.941Z,93.60
2017-11-22T01:07:39.943Z,93.23
2017-11-22T01:08:39.937Z,92.65
2017-11-22T01:09:39.931Z,93.04
2017-11-22T01:10:39.936Z,93.51
2017-11-22T01:11:39.923Z,93.70
2017-11-22T01:12:39.925Z,92.46
2017-11-22T01:13:39.925Z,93.79
2017-11-22T01:14:39.920Z,95.03
2017-11-22T01:15:39.920Z,94.84
2017-11-22T01:16:39.915Z,93.41
2017-11-22T01:17:39.908Z,93.41
2017-11-22T01:18:39.909Z,94.37
2017-11-22T01:19:39.910Z,92.65
2017-11-22T01:20:39.900Z,92.51
2017-11-22T01:21:39.900Z,92.80
2017-11-22T01:22:39.918Z,92.22
2017-11-22T01:23:39.903Z,92.65
2017-11-22T01:24:39.888Z,93.89
2017-11-22T01:25:39.886Z,93.46
2017-11-22T01:26:39.914Z,92.56
2017-11-22T01:27:39.881Z,93.94
2017-11-22T01:28:39.876Z,92.65
2017-11-22T01:29:39.869Z,93.94
2017-11-22T01:30:39.874Z,93.46
2017-11-22T01:31:39.867Z,92.89
2017-11-22T01:32:39.861Z,92.56
2017-11-22T01:33:39.859Z,93.51
2017-11-22T01:34:39.858Z,93.27
2017-11-22T01:35:39.856Z,94.46
2017-11-22T01:36:39.877Z,94.37
2017-11-22T01:37:39.848Z,94.46
2017-11-22T01:38:39.847Z,92.27
2017-11-22T01:39:39.846Z,93.51
2017-11-22T01:40:39.839Z,93.41
2017-11-22T01:41:39.836Z,93.98
2017-11-22T01:42:39.833Z,95.12
2017-11-22T01:43:39.835Z,94.27
2017-11-22T01:44:39.828Z,93.98
2017-11-22T01:45:39.821Z,93.51
2017-11-22T01:46:39.821Z,94.18
2017-11-22T01:47:39.816Z,94.37
2017-11-22T01:48:39.809Z,93.32
2017-11-22T01:49:39.809Z,92.36
2017-11-22T01:50:39.809Z,93.41
2017-11-22T01:51:39.805Z,92.46
2017-11-22T01:52:39.799Z,93.60
2017-11-22T01:53:39.802Z,92.94
2017-11-22T01:54:39.796Z,95.03
2017-11-22T01:55:39.791Z,93.41
2017-11-22T01:56:39.787Z,94.08
2017-11-22T01:57:39.787Z,94.84
2017-11-22T01:58:39.783Z,94.56
2017-11-22T01:59:39.792Z,92.94
2017-11-22T02:00:39.772Z,93.32
2017-11-22T02:01:39.773Z,92.27
2017-11-22T02:02:39.768Z,93.79
2017-11-22T02:03:39.766Z,93.37
2017-11-22T02:04:39.770Z,91.89
2017-11-22T02:05:39.763Z,93.23
2017-11-22T02:06:39.758Z,93.98
2017-11-22T02:07:39.754Z,92.51
2017-11-22T02:08:39.749Z,92.03
2017-11-22T02:09:39.745Z,92.03
2017-11-22T02:10:39.740Z,93.18
2017-11-22T02:11:39.747Z,92.99
2017-11-22T02:12:39.740Z,92.61
2017-11-22T02:13:39.737Z,92.61
2017-11-22T02:14:39.735Z,94.03
2017-11-22T02:15:39.727Z,92.41
2017-11-22T02:16:39.727Z,92.13
2017-11-22T02:17:39.722Z,92.51
2017-11-22T02:18:39.720Z,92.80
2017-11-22T02:19:39.714Z,92.22
2017-11-22T02:20:39.709Z,92.61
2017-11-22T02:21:39.710Z,91.75
2017-11-22T02:22:39.703Z,92.61
2017-11-22T02:23:39.706Z,92.80
2017-11-22T02:24:39.699Z,93.46
2017-11-22T02:25:39.710Z,94.42
2017-11-22T02:26:39.698Z,92.99
2017-11-22T02:27:39.687Z,93.37
2017-11-22T02:28:39.683Z,93.08
2017-11-22T02:29:39.684Z,94.22
2017-11-22T02:30:39.679Z,94.22
2017-11-22T02:31:39.677Z,94.70
2017-11-22T02:32:39.680Z,93.46
2017-11-22T02:33:39.673Z,93.75
2017-11-22T02:34:39.667Z,92.89
2017-11-22T02:35:39.664Z,93.27
2017-11-22T02:36:39.660Z,93.94
2017-11-22T02:37:39.664Z,93.65
2017-11-22T02:38:39.650Z,92.41
2017-11-22T02:39:39.650Z,92.22
2017-11-22T02:40:39.653Z,92.61
2017-11-22T02:41:39.650Z,93.18
2017-11-22T02:42:39.644Z,93.27
2017-11-22T02:43:39.637Z,93.37
2017-11-22T02:44:39.635Z,94.13
2017-11-22T02:45:39.628Z,94.42
2017-11-22T02:46:39.626Z,94.32
2017-11-22T02:47:39.619Z,92.61
2017-11-22T02:48:39.642Z,92.51
2017-11-22T02:49:39.614Z,92.70
2017-11-22T02:50:39.614Z,92.89
2017-11-22T02:51:39.612Z,92.41
2017-11-22T02:52:39.607Z,92.51
2017-11-22T02:53:39.605Z,92.61
2017-11-22T02:54:39.603Z,92.61
2017-11-22T02:55:39.602Z,91.75
2017-11-22T02:56:39.597Z,92.51
2017-11-22T02:57:39.592Z,93.65
2017-11-22T02:58:39.588Z,94.79
2017-11-22T02:59:39.585Z,94.22
2017-11-22T03:00:39.581Z,93.65
2017-11-22T03:01:39.573Z,92.41
2017-11-22T03:02:39.578Z,92.80
2017-11-22T03:03:39.596Z,91.66
2017-11-22T03:04:39.579Z,92.03
2017-11-22T03:05:39.563Z,91.85
2017-11-22T03:06:39.564Z,91.66
2017-11-22T03:07:39.555Z,91.66
2017-11-22T03:08:39.553Z,92.51
2017-11-22T03:09:39.548Z,91.37
2017-11-22T03:10:39.547Z,92.22
2017-11-22T03:11:39.543Z,92.89
2017-11-22T03:12:39.542Z,93.37
2017-11-22T03:13:39.539Z,93.27
2017-11-22T03:14:39.533Z,92.03
2017-11-22T03:15:39.533Z,92.80
2017-11-22T03:16:39.531Z,93.18
2017-11-22T03:17:39.526Z,92.03
2017-11-22T03:18:39.520Z,92.51
2017-11-22T03:19:39.518Z,92.41
2017-11-22T03:20:39.514Z,92.41
2017-11-22T03:21:39.511Z,92.41
2017-11-22T03:22:39.516Z,92.32
2017-11-22T03:23:39.544Z,92.32
2017-11-22T03:24:39.506Z,92.51
2017-11-22T03:25:39.496Z,91.75
2017-11-22T03:26:39.495Z,91.47
2017-11-22T03:27:39.493Z,91.18
2017-11-22T03:28:39.490Z,92.32
2017-11-22T03:29:39.482Z,94.22
2017-11-22T03:30:39.489Z,94.13
2017-11-22T03:31:39.477Z,94.89
2017-11-22T03:32:39.470Z,92.61
2017-11-22T03:33:39.469Z,94.03
2017-11-22T03:34:39.483Z,92.51
2017-11-22T03:35:39.482Z,92.32
2017-11-22T03:36:39.459Z,91.47
2017-11-22T03:37:39.458Z,91.37
2017-11-22T03:38:39.456Z,91.28
2017-11-22T03:39:39.449Z,92.32
2017-11-22T03:40:39.442Z,91.56
2017-11-22T03:41:39.445Z,91.18
2017-11-22T03:42:39.442Z,92.99
2017-11-22T03:43:39.442Z,92.51
2017-11-22T03:44:39.439Z,91.56
2017-11-22T03:45:39.431Z,91.75
2017-11-22T03:46:39.427Z,91.85
2017-11-22T03:47:39.427Z,91.94
2017-11-22T03:48:39.416Z,92.89
2017-11-22T03:49:39.417Z,92.70
2017-11-22T03:50:39.413Z,92.13
2017-11-22T03:51:39.415Z,91.85
2017-11-22T03:52:39.409Z,91.28
2017-11-22T03:53:39.402Z,92.70
2017-11-22T03:54:39.403Z,91.56
2017-11-22T03:55:39.397Z,91.28
2017-11-22T03:56:39.393Z,91.18
2017-11-22T03:57:39.396Z,91.94
2017-11-22T03:58:39.386Z,92.22
2017-11-22T03:59:39.383Z,91.85
2017-11-22T04:00:39.379Z,91.37
2017-11-22T04:01:39.378Z,91.47
2017-11-22T04:02:39.377Z,91.18
2017-11-22T04:03:39.370Z,91.66
2017-11-22T04:04:39.373Z,91.47
2017-11-22T04:05:39.362Z,93.27
2017-11-22T04:06:39.361Z,91.66
2017-11-22T04:07:39.362Z,91.28
2017-11-22T04:08:39.357Z,91.66
2017-11-22T04:09:39.351Z,91.66
2017-11-22T04:10:39.342Z,93.18
2017-11-22T04:11:39.342Z,91.66
2017-11-22T04:12:39.337Z,91.66
2017-11-22T04:13:39.336Z,91.18
2017-11-22T04:14:39.331Z,91.66
2017-11-22T04:15:39.332Z,91.66
2017-11-22T04:16:39.328Z,92.80
2017-11-22T04:17:39.322Z,91.66
2017-11-22T04:18:39.318Z,91.75
2017-11-22T04:19:39.318Z,91.94
2017-11-22T04:20:39.310Z,91.37
2017-11-22T04:21:39.311Z,91.37
2017-11-22T04:22:39.306Z,91.66
2017-11-22T04:23:39.301Z,91.71
2017-11-22T04:24:39.301Z,92.03
2017-11-22T04:25:39.294Z,92.22
2017-11-22T04:26:39.289Z,92.22
2017-11-22T04:27:39.287Z,91.28
2017-11-22T04:28:39.281Z,91.47
2017-11-22T04:29:39.288Z,92.70
2017-11-22T04:30:39.277Z,93.18
2017-11-22T04:31:39.272Z,93.46
2017-11-22T04:32:39.268Z,92.80
2017-11-22T04:33:39.266Z,92.51
2017-11-22T04:34:39.264Z,91.28
2017-11-22T04:35:39.261Z,91.66
2017-11-22T04:36:39.255Z,91.56
2017-11-22T04:37:39.258Z,92.51
2017-11-22T04:38:39.250Z,91.75
2017-11-22T04:39:39.251Z,92.70
2017-11-22T04:40:39.243Z,92.41
2017-11-22T04:41:39.238Z,92.89
2017-11-22T04:42:39.236Z,91.85
2017-11-22T04:43:39.230Z,91.85
2017-11-22T04:44:39.230Z,90.70
2017-11-22T04:45:39.224Z,91.47
2017-11-22T04:46:39.222Z,92.51
2017-11-22T04:47:39.224Z,92.80
2017-11-22T04:48:39.212Z,92.80
2017-11-22T04:49:39.219Z,92.99
2017-11-22T04:50:39.206Z,92.89
2017-11-22T04:51:39.203Z,90.80
2017-11-22T04:52:39.197Z,91.47
2017-11-22T04:53:39.197Z,90.80
2017-11-22T04:54:39.194Z,91.94
2017-11-22T04:55:39.190Z,92.41
2017-11-22T04:56:39.187Z,91.56
2017-11-22T04:57:39.183Z,90.70
2017-11-22T04:58:39.179Z,90.70
2017-11-22T04:59:39.199Z,92.99
2017-11-22T05:00:39.171Z,91.47
2017-11-22T05:01:39.167Z,91.23
2017-11-22T05:02:39.163Z,90.89
2017-11-22T05:03:39.161Z,91.42
2017-11-22T05:04:39.159Z,92.46
2017-11-22T05:05:39.154Z,91.37
2017-11-22T05:06:39.147Z,92.51
2017-11-22T05:07:39.142Z,92.41
2017-11-22T05:08:39.146Z,92.22
2017-11-22T05:09:39.140Z,91.18
2017-11-22T05:10:39.132Z,91.37
2017-11-22T05:11:39.139Z,91.75
2017-11-22T05:12:39.129Z,90.42
2017-11-22T05:13:39.150Z,91.18
2017-11-22T05:14:39.123Z,90.89
2017-11-22T05:15:39.116Z,91.94
2017-11-22T05:16:39.115Z,91.18
2017-11-22T05:17:39.156Z,91.85
2017-11-22T05:18:39.105Z,90.80
2017-11-22T05:19:39.105Z,91.47
2017-11-22T05:20:39.095Z,90.70
2017-11-22T05:21:39.097Z,91.47
2017-11-22T05:22:39.089Z,90.33
2017-11-22T05:23:39.085Z,90.42
2017-11-22T05:24:39.088Z,91.94
2017-11-22T05:25:39.079Z,90.23
2017-11-22T05:26:39.070Z,90.61
2017-11-22T05:27:39.077Z,91.28
2017-11-22T05:28:39.068Z,91.28
2017-11-22T05:29:39.066Z,90.99
2017-11-22T05:30:39.071Z,91.94
2017-11-22T05:31:39.060Z,90.89
2017-11-22T05:32:39.057Z,90.23
2017-11-22T05:33:39.130Z,90.70
2017-11-22T05:34:39.050Z,90.80
2017-11-22T05:35:39.049Z,90.23
2017-11-22T05:36:39.041Z,90.14
2017-11-22T05:37:39.042Z,91.08
2017-11-22T05:38:39.034Z,92.80
2017-11-22T05:39:39.032Z,90.52
2017-11-22T05:40:39.029Z,89.09
2017-11-22T05:41:39.023Z,90.89
2017-11-22T05:42:39.028Z,90.70
2017-11-22T05:43:39.017Z,90.80
2017-11-22T05:44:39.012Z,90.33
2017-11-22T05:45:39.013Z,91.75
2017-11-22T05:46:39.001Z,90.99
2017-11-22T05:47:39.004Z,90.23
2017-11-22T05:48:38.998Z,91.28
2017-11-22T05:49:38.992Z,90.61
2017-11-22T05:50:38.989Z,89.37
2017-11-22T05:51:39.000Z,89.94
2017-11-22T05:52:38.986Z,90.23
2017-11-22T05:53:38.979Z,90.04
2017-11-22T05:54:38.976Z,91.28
2017-11-22T05:55:38.972Z,88.90
2017-11-22T05:56:38.970Z,90.23
2017-11-22T05:57:38.966Z,89.18
2017-11-22T05:58:38.963Z,91.08
2017-11-22T05:59:38.961Z,90.52
2017-11-22T06:00:38.955Z,90.99
2017-11-22T06:01:38.969Z,90.33
2017-11-22T06:02:38.947Z,89.47
2017-11-22T06:03:38.944Z,90.99
2017-11-22T06:04:38.939Z,89.94
2017-11-22T06:05:38.937Z,89.85
2017-11-22T06:06:38.935Z,90.33
2017-11-22T06:07:38.931Z,91.66
2017-11-22T06:08:38.932Z,90.70
2017-11-22T06:09:38.923Z,91.75
2017-11-22T06:10:38.918Z,91.37
2017-11-22T06:11:38.912Z,90.42
2017-11-22T06:12:38.921Z,89.37
2017-11-22T06:13:38.909Z,88.71
2017-11-22T06:14:38.907Z,90.52
2017-11-22T06:15:38.904Z,90.23
2017-11-22T06:16:38.903Z,89.28
2017-11-22T06:17:38.894Z,89.14
2017-11-22T06:18:38.893Z,89.56
2017-11-22T06:19:38.887Z,89.00
2017-11-22T06:20:38.881Z,89.09
2017-11-22T06:21:38.882Z,89.90
2017-11-22T06:22:38.877Z,90.80
2017-11-22T06:23:38.873Z,89.75
2017-11-22T06:24:38.867Z,90.00
2017-11-22T06:25:38.866Z,90.33
2017-11-22T06:26:38.864Z,90.00
2017-11-22T06:27:38.861Z,90.70
2017-11-22T06:28:38.856Z,90.14
2017-11-22T06:29:38.849Z,91.08
2017-11-22T06:30:38.848Z,91.28
2017-11-22T06:31:38.848Z,90.70
2017-11-22T06:32:38.843Z,91.37
2017-11-22T06:33:38.871Z,90.14
2017-11-22T06:34:38.844Z,90.23
2017-11-22T06:35:38.841Z,91.28
2017-11-22T06:36:38.824Z,91.94
2017-11-22T06:37:38.821Z,92.41
2017-11-22T06:38:38.821Z,90.14
2017-11-22T06:39:38.816Z,89.85
2017-11-22T06:40:38.809Z,90.61
2017-11-22T06:41:38.811Z,91.37
2017-11-22T06:42:38.801Z,90.99
2017-11-22T06:43:38.801Z,90.99
2017-11-22T06:44:38.797Z,92.22
2017-11-22T06:45:38.796Z,90.99
2017-11-22T06:46:38.788Z,88.80
2017-11-22T06:47:38.795Z,89.75
2017-11-22T06:48:38.780Z,90.99
2017-11-22T06:49:38.778Z,89.56
2017-11-22T06:50:38.775Z,90.14
2017-11-22T06:51:38.768Z,91.28
2017-11-22T06:52:38.766Z,90.23
2017-11-22T06:53:38.764Z,90.70
2017-11-22T06:54:38.760Z,91.18
2017-11-22T06:55:38.770Z,91.37
2017-11-22T06:56:38.752Z,90.89
2017-11-22T06:57:38.749Z,89.94
2017-11-22T06:58:38.745Z,90.14
2017-11-22T06:59:38.743Z,90.42
2017-11-22T07:00:38.740Z,90.89
2017-11-22T07:01:38.732Z,91.66
2017-11-22T07:02:38.732Z,90.70
2017-11-22T07:03:38.729Z,91.47
2017-11-22T07:04:38.725Z,90.80
2017-11-22T07:05:38.735Z,91.18
2017-11-22T07:06:38.721Z,91.37
2017-11-22T07:07:38.711Z,90.99
2017-11-22T07:08:38.706Z,91.22
2017-11-22T07:09:38.703Z,90.70
2017-11-22T07:10:38.705Z,92.08
2017-11-22T07:11:38.697Z,89.47
2017-11-22T07:12:38.704Z,90.33
2017-11-22T07:13:38.695Z,91.08
2017-11-22T07:14:38.687Z,89.85
2017-11-22T07:15:38.688Z,90.37
2017-11-22T07:16:38.682Z,90.14
2017-11-22T07:17:38.675Z,90.37
2017-11-22T07:18:38.677Z,91.22
2017-11-22T07:19:38.673Z,89.61
2017-11-22T07:20:38.665Z,90.18
2017-11-22T07:21:38.663Z,89.75
2017-11-22T07:22:38.660Z,90.18
2017-11-22T07:23:38.657Z,89.18
2017-11-22T07:24:38.659Z,90.52
2017-11-22T07:25:38.647Z,91.70
2017-11-22T07:26:38.648Z,89.70
2017-11-22T07:27:38.642Z,89.75
2017-11-22T07:28:38.640Z,89.14
2017-11-22T07:29:38.637Z,89.28
2017-11-22T07:30:38.634Z,90.80
2017-11-22T07:31:38.631Z,90.23
2017-11-22T07:32:38.627Z,90.14
2017-11-22T07:33:38.624Z,89.47
2017-11-22T07:34:38.619Z,88.52
2017-11-22T07:35:38.617Z,88.90
2017-11-22T07:36:38.643Z,90.80
2017-11-22T07:37:38.610Z,90.14
2017-11-22T07:38:38.613Z,90.80
2017-11-22T07:39:38.603Z,89.37
2017-11-22T07:40:38.600Z,91.80
2017-11-22T07:41:38.598Z,89.80
2017-11-22T07:42:38.594Z,90.37
2017-11-22T07:43:38.591Z,91.03
2017-11-22T07:44:38.589Z,89.89
2017-11-22T07:45:38.582Z,89.23
2017-11-22T07:46:38.580Z,89.23
2017-11-22T07:47:38.576Z,90.28
2017-11-22T07:48:38.575Z,90.18
2017-11-22T07:49:38.573Z,91.42
2017-11-22T07:50:38.568Z,89.14
2017-11-22T07:51:38.562Z,90.84
2017-11-22T07:52:38.557Z,89.61
2017-11-22T07:53:38.558Z,88.37
2017-11-22T07:54:38.559Z,87.61
2017-11-22T07:55:38.557Z,88.85
2017-11-22T07:56:38.550Z,88.46
2017-11-22T07:57:38.553Z,88.85
2017-11-22T07:58:38.543Z,89.61
2017-11-22T07:59:38.538Z,89.61
2017-11-22T08:00:38.529Z,88.66
2017-11-22T08:01:38.534Z,88.46
2017-11-22T08:02:38.527Z,87.57
2017-11-22T08:03:38.537Z,90.75
2017-11-22T08:04:38.524Z,89.61
2017-11-22T08:05:38.520Z,89.51
2017-11-22T08:06:38.518Z,89.61
2017-11-22T08:07:38.516Z,89.42
2017-11-22T08:08:38.512Z,90.28
2017-11-22T08:09:38.510Z,90.37
2017-11-22T08:10:38.500Z,88.18
2017-11-22T08:11:38.616Z,88.85
2017-11-22T08:12:38.501Z,90.84
2017-11-22T08:13:38.519Z,89.04
2017-11-22T08:14:38.493Z,89.61
2017-11-22T08:15:38.490Z,90.08
2017-11-22T08:16:38.489Z,90.75
2017-11-22T08:17:38.478Z,88.85
2017-11-22T08:18:38.477Z,90.37
2017-11-22T08:19:38.478Z,88.37
2017-11-22T08:20:38.472Z,88.46
2017-11-22T08:21:38.467Z,90.08
2017-11-22T08:22:38.474Z,90.66
2017-11-22T08:23:38.476Z,89.32
2017-11-22T08:24:38.460Z,90.94
2017-11-22T08:25:38.459Z,91.03
2017-11-22T08:26:38.459Z,89.51
2017-11-22T08:27:38.459Z,88.85
2017-11-22T08:28:38.449Z,90.37
2017-11-22T08:29:38.446Z,90.66
2017-11-22T08:30:38.487Z,90.28
2017-11-22T08:31:38.443Z,89.14
2017-11-22T08:32:38.437Z,90.28
2017-11-22T08:33:38.455Z,89.42
2017-11-22T08:34:38.433Z,89.23
2017-11-22T08:35:38.429Z,90.18
2017-11-22T08:36:38.429Z,89.89
2017-11-22T08:37:38.424Z,88.37
2017-11-22T08:38:38.436Z,89.32
2017-11-22T08:39:38.422Z,89.14
2017-11-22T08:40:38.416Z,87.90
2017-11-22T08:41:38.412Z,87.13
2017-11-22T08:42:38.415Z,87.80
2017-11-22T08:43:38.406Z,87.23
2017-11-22T08:44:38.401Z,87.13
2017-11-22T08:45:38.403Z,90.08
2017-11-22T08:46:38.399Z,87.23
2017-11-22T08:47:38.397Z,87.23
2017-11-22T08:48:38.389Z,88.46
2017-11-22T08:49:38.390Z,87.32
2017-11-22T08:50:38.390Z,86.94
2017-11-22T08:51:38.387Z,87.90
2017-11-22T08:52:38.380Z,88.66
2017-11-22T08:53:38.376Z,87.99
2017-11-22T08:54:38.382Z,87.90
2017-11-22T08:55:38.373Z,89.51
2017-11-22T08:56:38.385Z,87.32
2017-11-22T08:57:38.361Z,87.80
2017-11-22T08:58:38.363Z,87.23
2017-11-22T08:59:38.362Z,87.32
2017-11-22T09:00:38.367Z,86.94
2017-11-22T09:01:38.357Z,86.76
2017-11-22T09:02:38.350Z,87.23
2017-11-22T09:03:38.349Z,87.32
2017-11-22T09:04:38.345Z,88.85
2017-11-22T09:05:38.342Z,89.61
2017-11-22T09:06:38.349Z,87.42
2017-11-22T09:07:38.338Z,89.70
2017-11-22T09:08:38.377Z,86.94
2017-11-22T09:09:38.330Z,86.94
2017-11-22T09:10:38.325Z,88.56
2017-11-22T09:11:38.327Z,86.94
2017-11-22T09:12:38.323Z,86.76
2017-11-22T09:13:38.320Z,87.13
2017-11-22T09:14:38.317Z,87.13
2017-11-22T09:15:38.319Z,87.23
2017-11-22T09:16:38.317Z,88.46
2017-11-22T09:17:38.312Z,88.18
2017-11-22T09:18:38.301Z,87.52
2017-11-22T09:19:38.302Z,87.61
2017-11-22T09:20:38.318Z,87.90
2017-11-22T09:21:38.301Z,88.46
2017-11-22T09:22:38.293Z,89.14
2017-11-22T09:23:38.292Z,86.85
2017-11-22T09:24:38.288Z,87.04
2017-11-22T09:25:38.287Z,88.85
2017-11-22T09:26:38.286Z,88.09
2017-11-22T09:27:38.285Z,86.28
2017-11-22T09:28:38.277Z,87.99
2017-11-22T09:29:38.278Z,86.66
2017-11-22T09:30:38.274Z,86.76
2017-11-22T09:31:38.328Z,87.23
2017-11-22T09:32:38.273Z,88.94
2017-11-22T09:33:38.268Z,88.46
2017-11-22T09:34:38.262Z,86.76
2017-11-22T09:35:38.255Z,85.99
2017-11-22T09:36:38.258Z,87.61
2017-11-22T09:37:38.248Z,86.51
2017-11-22T09:38:38.253Z,87.08
2017-11-22T09:39:38.249Z,86.09
2017-11-22T09:40:38.247Z,86.13
2017-11-22T09:41:38.244Z,86.57
2017-11-22T09:42:38.236Z,87.04
2017-11-22T09:43:38.242Z,86.51
2017-11-22T09:44:38.237Z,86.99
2017-11-22T09:45:38.233Z,86.51
2017-11-22T09:46:38.234Z,86.04
2017-11-22T09:47:38.229Z,85.37
2017-11-22T09:48:38.223Z,85.75
2017-11-22T09:49:38.220Z,87.37
2017-11-22T09:50:38.229Z,84.80
2017-11-22T09:51:38.215Z,86.32
2017-11-22T09:52:38.213Z,85.75
2017-11-22T09:53:38.214Z,85.37
2017-11-22T09:54:38.221Z,85.56
2017-11-22T09:55:38.211Z,87.27
2017-11-22T09:56:38.223Z,86.70
2017-11-22T09:57:38.206Z,84.70
2017-11-22T09:58:38.201Z,84.70
2017-11-22T09:59:38.198Z,84.61
2017-11-22T10:00:38.217Z,84.23
2017-11-22T10:01:38.198Z,83.75
2017-11-22T10:02:38.194Z,85.03
2017-11-22T10:03:38.191Z,84.94
2017-11-22T10:04:38.183Z,84.36
2017-11-22T10:05:38.188Z,84.94
2017-11-22T10:06:38.182Z,84.84
2017-11-22T10:07:38.188Z,85.22
2017-11-22T10:08:38.180Z,83.70
2017-11-22T10:09:38.179Z,83.89
2017-11-22T10:10:38.194Z,83.51
2017-11-22T10:11:38.173Z,84.65
2017-11-22T10:12:38.196Z,85.41
2017-11-22T10:13:38.179Z,85.89
2017-11-22T10:14:38.165Z,84.84
2017-11-22T10:15:38.165Z,84.17
2017-11-22T10:16:38.165Z,82.93
2017-11-22T10:17:38.179Z,84.17
2017-11-22T10:18:38.158Z,83.32
2017-11-22T10:19:38.165Z,82.93
2017-11-22T10:20:38.167Z,83.89
2017-11-22T10:21:38.176Z,83.98
2017-11-22T10:22:38.194Z,84.46
2017-11-22T10:23:38.193Z,84.17
2017-11-22T10:24:38.165Z,83.61
2017-11-22T10:25:38.167Z,85.84
2017-11-22T10:26:38.171Z,85.22
2017-11-22T10:27:38.164Z,83.51
2017-11-22T10:28:38.151Z,82.31
2017-11-22T10:29:38.152Z,81.89
2017-11-22T10:30:38.151Z,82.60
2017-11-22T10:31:38.145Z,82.98
2017-11-22T10:32:38.144Z,83.61
2017-11-22T10:33:38.164Z,84.79
2017-11-22T10:34:38.166Z,83.17
2017-11-22T10:35:38.140Z,83.84
2017-11-22T10:36:38.137Z,85.08
2017-11-22T10:37:38.150Z,84.69
2017-11-22T10:38:38.131Z,82.50
2017-11-22T10:39:38.152Z,83.36
2017-11-22T10:40:38.136Z,82.12
2017-11-22T10:41:38.153Z,82.50
2017-11-22T10:42:38.130Z,81.26
2017-11-22T10:43:38.127Z,81.55
2017-11-22T10:44:38.180Z,82.12
2017-11-22T10:45:38.130Z,80.98
2017-11-22T10:46:38.131Z,81.55
2017-11-22T10:47:38.124Z,81.46
2017-11-22T10:48:38.136Z,80.69
2017-11-22T10:49:38.128Z,81.46
2017-11-22T10:50:38.125Z,81.36
2017-11-22T10:51:38.124Z,81.84
2017-11-22T10:52:38.127Z,81.93
2017-11-22T10:53:38.129Z,82.79
2017-11-22T10:54:38.152Z,81.74
2017-11-22T10:55:38.115Z,81.97
2017-11-22T10:56:38.112Z,81.40
2017-11-22T10:57:38.117Z,81.40
2017-11-22T10:58:38.115Z,81.59
2017-11-22T10:59:38.158Z,81.02
2017-11-22T11:00:38.116Z,82.07
2017-11-22T11:01:38.122Z,81.36
2017-11-22T11:02:38.115Z,81.26
2017-11-22T11:03:38.111Z,81.55
2017-11-22T11:04:38.107Z,82.07
2017-11-22T11:05:38.105Z,81.68
2017-11-22T11:06:38.121Z,81.21
2017-11-22T11:07:38.107Z,81.68
2017-11-22T11:08:38.106Z,80.98
2017-11-22T11:09:38.114Z,81.46
2017-11-22T11:10:38.110Z,82.31
2017-11-22T11:11:38.113Z,81.46
2017-11-22T11:12:38.106Z,81.17
2017-11-22T11:13:38.100Z,81.36
2017-11-22T11:14:38.113Z,81.17
2017-11-22T11:15:38.103Z,82.03
2017-11-22T11:16:38.108Z,82.03
2017-11-22T11:17:38.102Z,81.46
2017-11-22T11:18:38.106Z,81.07
2017-11-22T11:19:38.095Z,82.12
2017-11-22T11:20:38.091Z,80.88
2017-11-22T11:21:38.091Z,81.74
2017-11-22T11:22:38.092Z,82.03
2017-11-22T11:23:38.097Z,82.03
2017-11-22T11:24:38.093Z,82.60
2017-11-22T11:25:38.091Z,80.88
2017-11-22T11:26:38.095Z,81.55
2017-11-22T11:27:38.090Z,80.69
2017-11-22T11:28:38.216Z,80.50
2017-11-22T11:29:38.086Z,81.07
2017-11-22T11:30:38.086Z,82.60
2017-11-22T11:31:38.096Z,82.64
2017-11-22T11:32:38.144Z,82.26
2017-11-22T11:33:38.092Z,81.02
2017-11-22T11:34:38.098Z,80.73
2017-11-22T11:35:38.093Z,79.78
2017-11-22T11:36:38.100Z,81.02
2017-11-22T11:37:38.092Z,79.02
2017-11-22T11:38:38.078Z,79.78
2017-11-22T11:39:38.082Z,81.40
2017-11-22T11:40:38.078Z,79.78
2017-11-22T11:41:38.074Z,80.26
2017-11-22T11:42:38.071Z,80.64
2017-11-22T11:43:38.078Z,80.49
2017-11-22T11:44:38.094Z,80.30
2017-11-22T11:45:38.077Z,80.07
2017-11-22T11:46:38.079Z,78.83
2017-11-22T11:47:38.066Z,80.07
2017-11-22T11:48:38.072Z,79.97
2017-11-22T11:49:38.071Z,80.92
2017-11-22T11:50:38.073Z,79.97
2017-11-22T11:51:38.070Z,79.21
2017-11-22T11:52:38.062Z,80.54
2017-11-22T11:53:38.073Z,79.40
2017-11-22T11:54:38.068Z,78.16
2017-11-22T11:55:38.069Z,78.25
2017-11-22T11:56:38.069Z,80.07
2017-11-22T11:57:38.092Z,81.59
2017-11-22T11:58:38.065Z,79.49
2017-11-22T11:59:38.062Z,78.92
2017-11-22T12:00:38.058Z,79.78
2017-11-22T12:01:38.061Z,79.68
2017-11-22T12:02:38.058Z,79.78
2017-11-22T12:03:38.060Z,79.21
2017-11-22T12:04:38.059Z,81.68
2017-11-22T12:05:38.234Z,81.40
2017-11-22T12:06:38.067Z,79.59
2017-11-22T12:07:38.077Z,79.59
2017-11-22T12:08:38.071Z,80.64
2017-11-22T12:09:38.072Z,80.83
2017-11-22T12:10:38.059Z,79.21
2017-11-22T12:11:38.054Z,82.73
2017-11-22T12:12:38.068Z,80.83
2017-11-22T12:13:38.074Z,80.35
2017-11-22T12:14:38.072Z,80.92
2017-11-22T12:15:38.053Z,80.26
2017-11-22T12:16:38.057Z,80.07
2017-11-22T12:17:38.062Z,79.88
2017-11-22T12:18:38.051Z,79.11
2017-11-22T12:19:38.067Z,78.92
2017-11-22T12:20:38.045Z,78.73
2017-11-22T12:21:38.051Z,78.22
2017-11-22T12:22:38.043Z,78.03
2017-11-22T12:23:38.089Z,78.50
2017-11-22T12:24:38.054Z,78.78
2017-11-22T12:25:38.053Z,81.93
2017-11-22T12:26:38.056Z,79.55
2017-11-22T12:27:38.041Z,79.02
2017-11-22T12:28:38.035Z,80.44
2017-11-22T12:29:38.049Z,81.49
2017-11-22T12:30:38.042Z,81.40
2017-11-22T12:31:38.042Z,80.92
2017-11-22T12:32:38.049Z,80.44
2017-11-22T12:33:38.030Z,79.88
2017-11-22T12:34:38.040Z,79.97
2017-11-22T12:35:38.051Z,80.92
2017-11-22T12:36:38.034Z,80.92
2017-11-22T12:37:38.031Z,79.97
2017-11-22T12:38:38.039Z,79.64
2017-11-22T12:39:38.095Z,81.02
2017-11-22T12:40:38.025Z,81.49
2017-11-22T12:41:38.026Z,79.59
2017-11-22T12:42:38.048Z,79.11
2017-11-22T12:43:38.085Z,78.92
2017-11-22T12:44:38.044Z,79.88
2017-11-22T12:45:38.032Z,80.16
2017-11-22T12:46:38.013Z,78.69
2017-11-22T12:47:38.035Z,79.27
2017-11-22T12:48:38.034Z,79.93
2017-11-22T12:49:38.016Z,81.21
2017-11-22T12:50:38.016Z,81.07
2017-11-22T12:51:38.018Z,80.88
2017-11-22T12:52:38.013Z,80.54